Time;durP1;ratioP1;P1;durP2;ratioP2;P2;SDS_P1;SDS_P2;PMS_P1;PMS_P2;Temp;Humidity;BMP_temperature;BMP_pressure;BME280_temperature;BME280_humidity;BME280_pressure;Samples;Min_cycle;Max_cycle;Signal;HPM_P1;HPM_P2
2023/08/28 00:01:30;;;;;;;16.12;9.68;;;;;;;24.11;100.00;99414.28;5589249;31;34406;-68
2023/08/28 00:04:33;;;;;;;13.23;9.32;;;;;;;24.08;100.00;99411.34;5588987;31;33791;-67
2023/08/28 00:07:35;;;;;;;14.57;9.43;;;;;;;24.09;100.00;99424.59;5588827;31;34571;-67
2023/08/28 00:10:40;;;;;;;14.73;9.30;;;;;;;24.03;100.00;99419.50;5588110;31;34535;-68
2023/08/28 00:13:42;;;;;;;11.73;8.88;;;;;;;23.95;100.00;99409.25;5588698;31;34149;-67
2023/08/28 00:16:46;;;;;;;11.52;9.07;;;;;;;23.99;100.00;99411.12;5588687;31;33890;-67
2023/08/28 00:19:49;;;;;;;12.25;8.70;;;;;;;23.87;100.00;99413.31;5588560;31;34127;-67
2023/08/28 00:22:51;;;;;;;11.73;8.07;;;;;;;23.87;100.00;99415.25;5588203;31;33861;-67
2023/08/28 00:25:54;;;;;;;11.75;7.97;;;;;;;23.81;100.00;99409.84;5588864;31;33946;-67
2023/08/28 00:28:57;;;;;;;9.82;7.68;;;;;;;23.77;100.00;99413.38;5588501;31;33853;-67
2023/08/28 00:31:59;;;;;;;12.88;7.90;;;;;;;23.77;100.00;99408.75;5588597;31;34930;-67
2023/08/28 00:35:03;;;;;;;15.77;7.95;;;;;;;23.77;100.00;99407.94;5588398;31;34873;-67
2023/08/28 00:38:06;;;;;;;12.07;8.00;;;;;;;23.68;100.00;99405.00;5588382;31;33785;-67
2023/08/28 00:41:09;;;;;;;10.52;7.10;;;;;;;23.66;100.00;99404.50;5588327;31;33781;-68
2023/08/28 00:44:11;;;;;;;8.35;7.03;;;;;;;23.62;100.00;99403.44;5587338;31;33956;-67
2023/08/28 00:47:14;;;;;;;8.88;7.35;;;;;;;23.57;100.00;99389.09;5588062;31;34792;-67
2023/08/28 00:50:17;;;;;;;10.70;7.00;;;;;;;23.49;100.00;99392.34;5587363;31;34728;-68
2023/08/28 00:53:21;;;;;;;10.15;6.85;;;;;;;23.40;100.00;99392.09;5588410;31;33850;-67
2023/08/28 00:56:24;;;;;;;12.18;6.40;;;;;;;23.34;100.00;99387.78;5587965;31;34815;-67
2023/08/28 00:59:28;;;;;;;10.60;6.85;;;;;;;23.27;100.00;99389.97;5588003;31;34398;-67
2023/08/28 01:02:30;;;;;;;7.65;6.28;;;;;;;23.23;100.00;99397.84;5587953;31;34930;-67
2023/08/28 01:05:44;;;;;;;9.82;6.10;;;;;;;23.20;100.00;99389.44;5587831;31;34557;-67
2023/08/28 01:08:54;;;;;;;8.18;6.57;;;;;;;23.15;100.00;99392.97;5587668;31;33896;-67
2023/08/28 01:12:14;;;;;;;9.55;6.22;;;;;;;23.10;100.00;99386.75;5587869;31;34572;-67
2023/08/28 01:15:21;;;;;;;7.95;6.20;;;;;;;23.03;100.00;99384.34;5587677;31;33846;-67
2023/08/28 01:18:26;;;;;;;8.98;6.30;;;;;;;22.98;100.00;99386.25;5587595;31;33953;-67
2023/08/28 01:21:30;;;;;;;11.10;6.18;;;;;;;22.94;100.00;99385.97;5587488;31;34036;-67
2023/08/28 01:24:33;;;;;;;8.98;6.43;;;;;;;22.89;100.00;99375.97;5590406;31;34001;-67
2023/08/28 01:27:40;;;;;;;6.55;5.70;;;;;;;22.86;100.00;99384.63;5590764;31;33952;-67
2023/08/28 01:30:43;;;;;;;10.35;5.70;;;;;;;22.78;100.00;99385.19;5576870;31;33850;-68
2023/08/28 01:33:49;;;;;;;10.05;6.10;;;;;;;22.75;100.00;99379.50;5590404;31;33924;-67
2023/08/28 01:36:58;;;;;;;6.55;5.68;;;;;;;22.69;100.00;99381.38;5590408;31;33938;-67
2023/08/28 01:40:05;;;;;;;7.68;5.75;;;;;;;22.61;100.00;99387.28;5590416;31;35291;-67
2023/08/28 01:43:12;;;;;;;10.30;5.50;;;;;;;22.64;100.00;99381.38;5590444;31;34636;-67
2023/08/28 01:46:17;;;;;;;8.00;5.72;;;;;;;22.57;100.00;99386.22;5589323;31;33784;-68
2023/08/28 01:49:20;;;;;;;8.98;5.87;;;;;;;22.57;100.00;99378.13;5589523;31;33234;-68
2023/08/28 01:52:22;;;;;;;7.03;6.00;;;;;;;22.52;100.00;99378.09;5589375;31;34116;-68
2023/08/28 01:56:11;;;;;;;8.05;5.72;;;;;;;22.50;100.00;99385.69;5590190;31;33897;-67
2023/08/28 01:59:14;;;;;;;8.90;6.03;;;;;;;22.49;100.00;99392.19;5566355;31;33680;-68
2023/08/28 02:02:17;;;;;;;10.52;5.93;;;;;;;22.42;100.00;99389.72;5590508;31;33795;-67
2023/08/28 02:05:20;;;;;;;8.00;5.80;;;;;;;22.37;100.00;99392.41;5590158;31;33836;-67
2023/08/28 02:08:22;;;;;;;8.27;5.40;;;;;;;22.34;100.00;99382.16;5590003;31;34630;-68
2023/08/28 02:11:25;;;;;;;7.85;5.57;;;;;;;22.25;100.00;99382.97;5589490;31;33927;-68
2023/08/28 02:14:28;;;;;;;6.43;5.62;;;;;;;22.20;100.00;99382.94;5590535;31;34450;-69
2023/08/28 02:17:31;;;;;;;8.27;6.60;;;;;;;22.17;100.00;99389.72;5590073;31;33862;-67
2023/08/28 02:20:34;;;;;;;6.43;5.55;;;;;;;22.14;100.00;99400.22;5590364;31;34615;-67
2023/08/28 02:23:37;;;;;;;7.60;5.78;;;;;;;22.10;100.00;99392.66;5589943;31;34126;-67
2023/08/28 02:26:40;;;;;;;7.55;6.00;;;;;;;22.10;100.00;99395.38;5590021;31;34828;-67
2023/08/28 02:29:43;;;;;;;8.23;5.68;;;;;;;22.07;100.00;99395.88;5589934;31;34768;-67
2023/08/28 02:32:45;;;;;;;8.75;5.82;;;;;;;22.04;100.00;99399.13;5588804;31;33886;-68
2023/08/28 02:35:48;;;;;;;8.45;5.85;;;;;;;22.03;100.00;99407.47;5589210;31;34038;-67
2023/08/28 02:38:51;;;;;;;9.15;5.62;;;;;;;22.03;100.00;99410.19;5589964;31;33835;-67
2023/08/28 02:41:54;;;;;;;8.45;5.87;;;;;;;21.98;100.00;99405.56;5590262;31;34001;-68
2023/08/28 02:44:56;;;;;;;9.20;6.12;;;;;;;21.98;100.00;99404.75;5588932;31;34500;-68
2023/08/28 02:47:59;;;;;;;9.18;6.12;;;;;;;21.92;100.00;99397.72;5590172;31;34860;-67
2023/08/28 02:51:02;;;;;;;6.35;5.70;;;;;;;21.86;100.00;99402.28;5590261;31;34503;-68
2023/08/28 02:54:05;;;;;;;8.70;5.90;;;;;;;21.81;100.00;99407.66;5590012;31;34041;-67
2023/08/28 02:57:08;;;;;;;12.25;6.12;;;;;;;21.76;100.00;99406.81;5589899;31;34486;-69
2023/08/28 03:00:11;;;;;;;10.05;6.07;;;;;;;21.72;100.00;99403.03;5589787;31;33865;-67
2023/08/28 03:03:14;;;;;;;7.05;6.20;;;;;;;21.65;100.00;99411.38;5589990;31;33869;-67
2023/08/28 03:06:17;;;;;;;8.85;6.15;;;;;;;21.62;100.00;99410.03;5589631;31;33788;-67
2023/08/28 03:09:20;;;;;;;8.05;6.05;;;;;;;21.58;100.00;99410.81;5589979;31;33789;-67
2023/08/28 03:12:23;;;;;;;8.38;6.05;;;;;;;21.56;100.00;99402.16;5589616;31;33810;-68
2023/08/28 03:15:26;;;;;;;6.68;5.80;;;;;;;21.55;100.00;99408.63;5589493;31;33996;-67
2023/08/28 03:18:29;;;;;;;6.40;5.80;;;;;;;21.45;100.00;99414.78;5589436;31;33786;-67
2023/08/28 03:21:34;;;;;;;6.25;5.65;;;;;;;21.41;100.00;99418.25;5589611;31;33786;-68
2023/08/28 03:24:37;;;;;;;10.02;5.75;;;;;;;21.44;100.00;99423.16;5588652;31;34045;-67
2023/08/28 03:27:39;;;;;;;6.70;5.60;;;;;;;21.36;100.00;99421.75;5588682;31;33970;-67
2023/08/28 03:30:43;;;;;;;11.18;5.85;;;;;;;21.34;100.00;99431.19;5589255;31;35032;-67
2023/08/28 03:33:46;;;;;;;8.80;5.85;;;;;;;21.28;100.00;99437.63;5589637;31;34284;-67
2023/08/28 03:36:49;;;;;;;7.60;5.97;;;;;;;21.29;100.00;99428.47;5589318;31;34405;-68
2023/08/28 03:39:51;;;;;;;8.30;6.05;;;;;;;21.17;100.00;99426.75;5589326;31;34583;-68
2023/08/28 03:42:54;;;;;;;6.87;6.05;;;;;;;21.11;100.00;99424.25;5589220;31;34037;-67
2023/08/28 03:45:57;;;;;;;8.93;6.37;;;;;;;21.07;100.00;99418.56;5588218;31;33928;-67
2023/08/28 03:49:00;;;;;;;8.80;6.35;;;;;;;21.02;100.00;99413.13;5589129;31;34412;-68
2023/08/28 03:52:03;;;;;;;13.20;6.05;;;;;;;21.04;100.00;99418.28;5589064;31;34597;-67
2023/08/28 03:55:06;;;;;;;9.43;6.07;;;;;;;21.01;100.00;99432.28;5588865;31;34667;-68
2023/08/28 03:58:09;;;;;;;9.73;6.10;;;;;;;20.90;100.00;99447.56;5589010;31;33906;-68
2023/08/28 04:01:14;;;;;;;9.38;5.97;;;;;;;20.91;100.00;99445.69;5589016;31;33924;-68
2023/08/28 04:04:17;;;;;;;8.95;6.55;;;;;;;20.88;100.00;99444.31;5589133;31;33900;-67
2023/08/28 04:07:23;;;;;;;9.77;6.30;;;;;;;20.86;100.00;99435.69;5588947;31;33873;-67
2023/08/28 04:10:29;;;;;;;7.57;5.47;;;;;;;20.79;100.00;99443.16;5589033;31;33780;-67
2023/08/28 04:13:33;;;;;;;9.35;6.15;;;;;;;20.77;100.00;99439.91;5589114;31;33851;-68
2023/08/28 04:16:37;;;;;;;9.48;5.90;;;;;;;20.70;100.00;99439.31;5588781;31;34027;-70
2023/08/28 04:19:40;;;;;;;8.73;6.07;;;;;;;20.74;100.00;99445.81;5587934;31;33855;-67
2023/08/28 04:22:43;;;;;;;11.23;6.18;;;;;;;20.67;100.00;99439.84;5588566;31;33793;-66
2023/08/28 04:25:47;;;;;;;8.52;6.25;;;;;;;20.65;100.00;99433.88;5587624;31;34192;-67
2023/08/28 04:28:50;;;;;;;7.03;6.25;;;;;;;20.71;100.00;99443.66;5587531;31;33914;-67
2023/08/28 04:31:52;;;;;;;8.65;5.68;;;;;;;20.78;100.00;99455.00;5588394;31;34679;-66
2023/08/28 04:34:55;;;;;;;10.15;5.82;;;;;;;20.67;100.00;99453.31;5588445;31;33908;-67
2023/08/28 04:37:59;;;;;;;10.93;6.10;;;;;;;20.67;100.00;99443.31;5588231;31;34612;-68
2023/08/28 04:41:03;;;;;;;12.90;5.72;;;;;;;20.73;100.00;99444.19;5588212;31;34443;-68
2023/08/28 04:44:05;;;;;;;6.37;5.37;;;;;;;20.83;100.00;99439.69;5587897;31;33901;-66
2023/08/28 04:47:08;;;;;;;20.50;6.18;;;;;;;20.67;100.00;99427.16;5588022;31;33369;-68
2023/08/28 04:50:11;;;;;;;9.45;5.85;;;;;;;20.69;100.00;99430.41;5587816;31;34205;-68
2023/08/28 04:53:17;;;;;;;9.85;6.05;;;;;;;20.76;100.00;99425.62;5588045;31;33912;-68
2023/08/28 04:56:19;;;;;;;8.13;6.00;;;;;;;20.74;100.00;99425.06;5588825;31;34740;-69
2023/08/28 04:59:22;;;;;;;11.18;6.20;;;;;;;20.81;100.00;99414.91;5590835;31;34457;-68
2023/08/28 05:02:25;;;;;;;8.48;6.03;;;;;;;20.90;100.00;99412.53;5590587;31;33803;-69
2023/08/28 05:05:29;;;;;;;7.50;5.50;;;;;;;21.07;100.00;99407.78;5590392;31;34678;-69
2023/08/28 05:08:31;;;;;;;10.30;5.70;;;;;;;21.29;100.00;99418.50;5590051;31;33881;-70
2023/08/28 05:11:34;;;;;;;8.55;5.53;;;;;;;21.43;100.00;99411.53;5590501;31;34540;-70
2023/08/28 05:14:37;;;;;;;9.43;5.68;;;;;;;21.53;100.00;99416.19;5590579;31;34076;-69
2023/08/28 05:17:41;;;;;;;9.20;5.95;;;;;;;21.74;100.00;99417.88;5590857;31;33934;-68
2023/08/28 05:20:43;;;;;;;9.02;6.28;;;;;;;21.87;100.00;99401.22;5590700;31;33934;-68
2023/08/28 05:23:46;;;;;;;8.60;6.70;;;;;;;21.87;100.00;99395.81;5590192;31;33866;-68
2023/08/28 05:26:49;;;;;;;8.73;6.75;;;;;;;22.07;100.00;99393.19;5590338;31;34060;-68
2023/08/28 05:29:52;;;;;;;8.75;6.72;;;;;;;22.13;100.00;99393.19;5589577;31;34585;-68
2023/08/28 05:32:55;;;;;;;10.98;6.60;;;;;;;22.17;100.00;99395.12;5590283;31;34437;-69
2023/08/28 05:35:58;;;;;;;9.10;5.75;;;;;;;22.16;100.00;99392.66;5590324;31;33951;-70
2023/08/28 05:39:01;;;;;;;9.05;5.85;;;;;;;22.42;100.00;99397.03;5589665;31;33834;-69
2023/08/28 05:42:04;;;;;;;7.18;6.03;;;;;;;22.67;100.00;99407.03;5590562;31;33799;-69
2023/08/28 05:45:07;;;;;;;8.88;6.30;;;;;;;22.51;100.00;99404.31;5590182;31;33912;-69
2023/08/28 05:48:10;;;;;;;10.02;6.07;;;;;;;22.50;100.00;99402.72;5590470;31;33840;-69
2023/08/28 05:51:14;;;;;;;9.38;6.20;;;;;;;22.78;100.00;99404.09;5590241;31;33804;-69
2023/08/28 05:54:17;;;;;;;9.90;6.97;;;;;;;22.70;100.00;99391.16;5589489;31;33869;-68
2023/08/28 05:57:20;;;;;;;9.50;6.20;;;;;;;22.46;100.00;99388.09;5589646;31;34043;-68
2023/08/28 06:00:25;;;;;;;11.35;6.43;;;;;;;22.69;100.00;99388.66;5589763;31;34630;-68
2023/08/28 06:03:28;;;;;;;10.27;6.10;;;;;;;22.87;100.00;99380.84;5589617;31;33870;-69
2023/08/28 06:06:31;;;;;;;10.82;5.80;;;;;;;22.96;100.00;99370.28;5589712;31;34728;-70
2023/08/28 06:09:34;;;;;;;8.20;5.87;;;;;;;23.24;100.00;99379.69;5575435;31;33918;-69
2023/08/28 06:12:37;;;;;;;11.93;6.85;;;;;;;23.20;100.00;99384.03;5589140;31;33936;-69
2023/08/28 06:15:40;;;;;;;10.90;5.80;;;;;;;23.14;100.00;99383.22;5590123;31;34142;-69
2023/08/28 06:18:42;;;;;;;7.47;6.12;;;;;;;23.43;100.00;99388.81;5590300;31;34646;-69
2023/08/28 06:21:45;;;;;;;12.35;6.25;;;;;;;23.49;100.00;99392.34;5589712;31;33497;-70
2023/08/28 06:24:52;;;;;;;13.20;6.28;;;;;;;23.92;100.00;99390.81;5589762;31;33823;-69
2023/08/28 06:27:55;;;;;;;8.25;6.37;;;;;;;23.86;100.00;99381.94;5589496;31;34176;-69
2023/08/28 06:30:58;;;;;;;11.18;6.72;;;;;;;23.76;100.00;99382.78;5590074;31;34038;-68
2023/08/28 06:34:01;;;;;;;11.63;6.80;;;;;;;23.77;100.00;99375.44;5588938;31;33716;-68
2023/08/28 06:37:04;;;;;;;8.43;7.00;;;;;;;23.63;100.00;99377.16;5589552;31;33963;-69
2023/08/28 06:40:08;;;;;;;12.93;7.05;;;;;;;23.88;100.00;99379.72;5589531;31;34594;-69
2023/08/28 06:43:11;;;;;;;10.63;7.35;;;;;;;23.89;100.00;99369.72;5589735;31;33952;-68
2023/08/28 06:46:17;;;;;;;10.88;7.22;;;;;;;23.88;100.00;99376.22;5589411;31;33973;-69
2023/08/28 06:49:20;;;;;;;23.92;7.68;;;;;;;24.21;100.00;99365.47;5589336;31;34110;-69
2023/08/28 06:52:23;;;;;;;22.70;8.30;;;;;;;24.59;100.00;99369.25;5589559;31;34353;-68
2023/08/28 06:55:27;;;;;;;15.32;7.60;;;;;;;24.95;100.00;99369.78;5588796;31;34877;-69
2023/08/28 06:58:30;;;;;;;10.57;7.07;;;;;;;25.47;100.00;99363.50;5589010;31;34695;-70
2023/08/28 07:01:33;;;;;;;12.98;7.32;;;;;;;26.80;100.00;99355.09;5589367;31;34731;-69
2023/08/28 07:04:35;;;;;;;8.23;6.90;;;;;;;26.97;100.00;99357.25;5589051;31;34055;-69
2023/08/28 07:07:38;;;;;;;15.60;7.43;;;;;;;26.96;100.00;99351.03;5589742;31;34821;-70
2023/08/28 07:10:42;;;;;;;16.00;7.47;;;;;;;26.92;100.00;99341.81;5588548;31;34486;-70
2023/08/28 07:13:45;;;;;;;11.40;6.87;;;;;;;27.78;100.00;99353.75;5589416;31;33884;-69
2023/08/28 07:16:48;;;;;;;13.88;6.78;;;;;;;28.24;100.00;99363.66;5588833;31;33828;-70
2023/08/28 07:19:50;;;;;;;11.82;6.70;;;;;;;27.36;100.00;99351.31;5589275;31;33959;-69
2023/08/28 07:22:53;;;;;;;13.32;6.60;;;;;;;27.65;100.00;99349.12;5588330;31;34559;-69
2023/08/28 07:25:58;;;;;;;12.23;6.72;;;;;;;27.86;100.00;99336.69;5589334;31;34808;-70
2023/08/28 07:29:02;;;;;;;10.00;6.32;;;;;;;28.33;100.00;99337.25;5588541;31;34874;-70
2023/08/28 07:32:05;;;;;;;11.63;6.37;;;;;;;29.15;96.33;99336.78;5589258;31;34580;-70
2023/08/28 07:35:08;;;;;;;10.02;6.43;;;;;;;29.92;85.00;99337.03;5589330;31;33779;-70
2023/08/28 07:38:11;;;;;;;25.37;7.03;;;;;;;28.95;94.30;99327.22;5589087;31;33803;-69
2023/08/28 07:41:16;;;;;;;13.57;6.62;;;;;;;27.86;100.00;99322.25;5589177;31;33950;-69
2023/08/28 07:44:19;;;;;;;22.77;6.90;;;;;;;29.16;93.96;99316.53;5584020;31;144031;-69
2023/08/28 07:47:22;;;;;;;15.77;6.80;;;;;;;30.43;79.35;99327.22;5588862;31;34090;-69
2023/08/28 07:50:25;;;;;;;11.90;6.70;;;;;;;29.25;90.25;99325.56;5588062;31;33668;-71
2023/08/28 07:53:29;;;;;;;19.15;6.90;;;;;;;29.65;87.29;99327.16;5588330;31;34939;-70
2023/08/28 07:56:32;;;;;;;11.15;6.10;;;;;;;30.59;77.43;99326.41;5587995;31;34787;-71
2023/08/28 07:59:36;;;;;;;10.93;6.45;;;;;;;30.58;77.31;99326.75;5588334;31;33919;-71
2023/08/28 08:02:39;;;;;;;16.15;6.45;;;;;;;30.04;83.23;99339.13;5588470;31;34465;-71
2023/08/28 08:05:41;;;;;;;10.35;6.78;;;;;;;29.60;87.76;99340.16;5588088;31;34812;-71
2023/08/28 08:08:48;;;;;;;12.23;6.43;;;;;;;29.90;84.34;99344.75;5588021;31;33805;-71
2023/08/28 08:11:51;;;;;;;15.82;7.15;;;;;;;30.64;79.37;99336.41;5587758;31;33789;-70
2023/08/28 08:14:53;;;;;;;13.93;6.97;;;;;;;30.28;80.28;99339.47;5587580;31;34552;-69
2023/08/28 08:17:56;;;;;;;12.90;7.15;;;;;;;30.10;80.16;99340.59;5588111;31;34761;-70
2023/08/28 08:20:59;;;;;;;17.52;6.93;;;;;;;29.74;86.46;99330.72;5587605;31;33829;-70
2023/08/28 08:24:03;;;;;;;12.37;6.95;;;;;;;30.35;80.88;99320.63;5587645;31;34500;-70
2023/08/28 08:27:08;;;;;;;11.98;7.12;;;;;;;29.65;85.55;99312.69;5587264;31;34810;-71
2023/08/28 08:30:13;;;;;;;14.87;7.10;;;;;;;30.36;79.66;99305.00;5587628;31;34652;-69
2023/08/28 08:33:17;;;;;;;17.23;7.10;;;;;;;30.60;77.01;99299.81;5589687;31;33974;-69
2023/08/28 08:36:20;;;;;;;18.52;6.80;;;;;;;29.57;85.52;99300.63;5590604;31;34566;-70
2023/08/28 08:39:24;;;;;;;13.93;7.85;;;;;;;29.63;85.57;99293.06;5590161;31;34521;-70
2023/08/28 08:42:27;;;;;;;16.37;7.57;;;;;;;29.39;89.09;99281.78;5589476;31;33976;-69
2023/08/28 08:45:33;;;;;;;10.80;7.87;;;;;;;30.46;80.15;99275.38;5588935;31;33847;-71
2023/08/28 08:48:37;;;;;;;16.37;7.55;;;;;;;30.93;74.82;99270.75;5589964;31;33777;-67
2023/08/28 08:51:43;;;;;;;15.35;7.43;;;;;;;30.17;78.76;99265.09;5589935;31;35073;-69
2023/08/28 08:54:49;;;;;;;21.20;7.72;;;;;;;30.05;80.25;99262.25;5590378;31;32897;-68
2023/08/28 08:57:55;;;;;;;16.85;8.10;;;;;;;30.66;76.20;99265.66;5590452;31;33448;-69
2023/08/28 09:00:59;;;;;;;23.98;7.82;;;;;;;31.32;70.85;99258.59;5590709;31;34083;-68
2023/08/28 09:04:03;;;;;;;17.87;7.87;;;;;;;32.68;63.81;99268.78;5589936;31;33869;-69
2023/08/28 09:07:06;;;;;;;33.53;8.07;;;;;;;33.03;60.59;99274.66;5589759;31;34705;-69
2023/08/28 09:10:09;;;;;;;15.57;7.97;;;;;;;32.92;63.01;99279.00;5589219;31;33876;-71
2023/08/28 09:13:14;;;;;;;15.63;7.93;;;;;;;32.33;64.25;99267.53;5589543;31;33927;-70
2023/08/28 09:16:19;;;;;;;16.90;7.60;;;;;;;32.51;63.17;99263.47;5590238;31;32715;-72
2023/08/28 09:19:22;;;;;;;19.30;7.68;;;;;;;33.10;60.68;99260.34;5590385;31;33866;-71
2023/08/28 09:22:29;;;;;;;11.70;7.40;;;;;;;33.09;59.41;99262.31;5590311;31;33807;-70
2023/08/28 09:25:49;;;;;;;18.73;7.95;;;;;;;32.37;62.40;99267.66;5590143;31;34611;-70
2023/08/28 09:29:03;;;;;;;15.82;7.68;;;;;;;32.75;60.54;99270.97;5589734;31;33800;-70
2023/08/28 09:32:08;;;;;;;16.62;8.82;;;;;;;32.32;63.08;99268.69;5590089;31;34021;-71
2023/08/28 09:35:13;;;;;;;18.95;8.05;;;;;;;31.79;66.21;99267.53;5590169;31;33775;-72
2023/08/28 09:38:16;;;;;;;16.42;7.80;;;;;;;32.33;62.36;99256.56;5590581;31;34391;-70
2023/08/28 09:41:19;;;;;;;15.45;7.80;;;;;;;32.72;59.43;99260.69;5589864;31;34026;-69
2023/08/28 09:44:25;;;;;;;16.87;7.45;;;;;;;33.45;57.31;99264.22;5589169;31;33908;-70
2023/08/28 09:47:29;;;;;;;16.48;7.70;;;;;;;33.29;57.85;99254.31;5590164;31;34761;-70
2023/08/28 09:50:34;;;;;;;17.45;7.15;;;;;;;34.02;54.81;99244.75;5593172;31;33816;-70
2023/08/28 09:53:37;;;;;;;16.52;7.62;;;;;;;34.44;52.37;99236.84;5590609;31;33866;-68
2023/08/28 09:56:42;;;;;;;16.08;7.10;;;;;;;33.57;53.69;99235.91;5591550;31;32590;-68
2023/08/28 09:59:45;;;;;;;13.40;7.25;;;;;;;33.73;54.51;99233.28;5590672;31;34634;-71
2023/08/28 10:02:50;;;;;;;18.35;7.45;;;;;;;33.54;54.24;99222.87;5589937;31;33657;-71
2023/08/28 10:05:58;;;;;;;19.77;7.35;;;;;;;33.33;54.67;99227.72;5590395;31;34186;-71
2023/08/28 10:09:02;;;;;;;19.40;7.62;;;;;;;32.80;58.43;99221.31;5590265;31;34647;-70
2023/08/28 10:12:07;;;;;;;23.12;7.85;;;;;;;32.83;59.22;99220.62;5589901;31;34022;-69
2023/08/28 10:15:11;;;;;;;17.52;7.75;;;;;;;32.75;58.69;99207.81;5589313;31;33891;-69
2023/08/28 10:18:39;;;;;;;20.27;7.32;;;;;;;32.84;58.05;99211.22;5589287;31;33463;-70
2023/08/28 10:21:44;;;;;;;25.48;7.50;;;;;;;32.53;57.33;99192.56;5582471;31;33796;-69
2023/08/28 10:24:52;;;;;;;14.82;6.90;;;;;;;32.73;58.25;99194.41;5589976;31;33798;-69
2023/08/28 10:27:58;;;;;;;12.60;6.62;;;;;;;33.17;53.06;99184.44;5589772;31;33835;-69
2023/08/28 10:31:05;;;;;;;15.80;7.03;;;;;;;33.28;51.49;99181.22;5588909;31;34667;-70
2023/08/28 10:34:09;;;;;;;15.13;6.37;;;;;;;33.27;52.21;99174.12;5590534;31;34137;-70
2023/08/28 10:37:13;;;;;;;12.32;6.22;;;;;;;32.69;51.99;99179.75;5589067;31;33803;-70
2023/08/28 10:40:30;;;;;;;16.65;6.47;;;;;;;32.99;52.86;99172.06;5589723;31;33978;-70
2023/08/28 10:43:33;;;;;;;13.55;5.60;;;;;;;33.69;49.93;99166.34;5589547;31;33173;-70
2023/08/28 10:46:37;;;;;;;14.68;6.43;;;;;;;36.38;43.84;99167.88;5589210;31;33896;-71
2023/08/28 10:49:40;;;;;;;23.12;6.10;;;;;;;38.27;39.71;99166.53;5589011;31;33895;-70
2023/08/28 10:52:46;;;;;;;19.10;6.15;;;;;;;39.27;37.02;99163.34;5589796;31;34539;-70
2023/08/28 10:55:59;;;;;;;12.95;5.53;;;;;;;40.56;34.60;99154.19;5588539;31;33917;-71
2023/08/28 10:59:24;;;;;;;11.88;5.40;;;;;;;39.84;34.62;99149.75;5588863;31;34865;-71
2023/08/28 11:03:02;;;;;;;15.80;5.37;;;;;;;42.69;30.79;99156.91;5589406;31;34994;-70
2023/08/28 11:06:39;;;;;;;19.75;6.00;;;;;;;44.94;26.95;99157.00;5589342;31;34093;-71
2023/08/28 11:09:43;;;;;;;10.80;4.87;;;;;;;46.84;25.04;99156.78;5589454;31;33920;-70
2023/08/28 11:12:53;;;;;;;20.40;7.65;;;;;;;47.75;23.24;99157.44;5589751;31;33819;-72
2023/08/28 11:16:05;;;;;;;15.93;5.03;;;;;;;48.46;23.62;99155.22;5589491;31;34368;-70
2023/08/28 11:19:08;;;;;;;9.30;4.97;;;;;;;45.68;24.62;99152.75;5589364;31;34536;-71
2023/08/28 11:22:11;;;;;;;16.67;5.15;;;;;;;47.17;23.32;99149.06;5589364;31;33904;-71
2023/08/28 11:25:35;;;;;;;11.68;4.50;;;;;;;46.92;23.53;99140.56;5589519;31;33900;-72
2023/08/28 11:28:44;;;;;;;14.40;6.50;;;;;;;44.82;24.62;99144.47;5589321;31;33872;-71
2023/08/28 11:31:47;;;;;;;11.55;4.30;;;;;;;43.87;25.79;99137.59;5589146;31;33924;-70
2023/08/28 11:34:51;;;;;;;16.95;4.85;;;;;;;44.83;24.96;99129.22;5589594;31;33920;-71
2023/08/28 11:37:55;;;;;;;12.00;4.57;;;;;;;46.50;23.80;99123.59;5589232;31;34076;-71
2023/08/28 11:41:04;;;;;;;8.88;4.22;;;;;;;47.33;21.67;99120.94;5589106;31;34535;-71
2023/08/28 11:44:11;;;;;;;17.42;4.50;;;;;;;47.00;23.07;99122.28;5588414;31;33960;-71
2023/08/28 11:47:14;;;;;;;8.73;4.55;;;;;;;47.65;22.79;99108.75;5589097;31;34491;-70
2023/08/28 11:50:18;;;;;;;16.65;4.60;;;;;;;45.83;23.75;99108.41;5589056;31;33784;-72
2023/08/28 11:53:40;;;;;;;13.40;4.50;;;;;;;46.40;23.86;99104.22;5589189;31;33974;-71
2023/08/28 11:56:43;;;;;;;15.00;4.45;;;;;;;45.43;23.47;99104.88;5589151;31;33776;-71
2023/08/28 11:59:49;;;;;;;8.50;4.82;;;;;;;45.38;23.71;99100.53;5588985;31;33759;-71
2023/08/28 12:02:52;;;;;;;13.35;4.65;;;;;;;45.57;23.93;99096.16;5588051;31;33920;-71
2023/08/28 12:06:04;;;;;;;13.30;4.60;;;;;;;47.58;23.11;99103.34;5587952;31;33918;-72
2023/08/28 12:09:11;;;;;;;11.20;4.25;;;;;;;48.57;22.15;99085.25;5588073;31;34105;-73
2023/08/28 12:12:15;;;;;;;9.68;4.53;;;;;;;48.73;20.72;99085.91;5588660;31;33922;-70
2023/08/28 12:15:18;;;;;;;10.40;4.65;;;;;;;46.48;21.63;99086.00;5588728;31;33881;-71
2023/08/28 12:18:21;;;;;;;12.70;5.03;;;;;;;46.55;22.06;99080.19;5587917;31;33893;-71
2023/08/28 12:21:38;;;;;;;10.40;4.45;;;;;;;46.55;21.98;99068.97;5588628;31;33010;-70
2023/08/28 12:24:46;;;;;;;15.15;4.90;;;;;;;46.15;23.21;99074.78;5588974;31;34877;-70
2023/08/28 12:27:48;;;;;;;15.15;4.25;;;;;;;47.86;21.39;99063.09;5588514;31;34005;-70
2023/08/28 12:30:52;;;;;;;11.05;3.90;;;;;;;48.61;20.25;99054.97;5588822;31;33952;-70
2023/08/28 12:33:55;;;;;;;12.13;4.40;;;;;;;49.01;19.55;99041.03;5588462;31;33919;-71
2023/08/28 12:37:06;;;;;;;13.52;4.70;;;;;;;50.82;18.88;99040.03;5587778;31;34432;-71
2023/08/28 12:40:11;;;;;;;13.02;4.18;;;;;;;49.23;19.17;99033.37;5588673;31;33970;-71
2023/08/28 12:43:15;;;;;;;12.80;4.37;;;;;;;47.49;20.70;99025.34;5588588;31;34527;-71
2023/08/28 12:46:18;;;;;;;10.32;4.20;;;;;;;48.32;20.90;99027.78;5588079;31;34771;-70
2023/08/28 12:49:22;;;;;;;10.43;4.10;;;;;;;48.81;20.02;99021.66;5587458;31;33795;-71
2023/08/28 12:52:24;;;;;;;10.52;4.60;;;;;;;48.96;18.95;99013.44;5587087;31;33985;-71
2023/08/28 12:55:27;;;;;;;11.55;4.18;;;;;;;49.79;18.86;99006.97;5588052;31;33718;-71
2023/08/28 12:58:30;;;;;;;9.18;4.35;;;;;;;51.86;17.02;99005.59;5587709;31;34434;-71
2023/08/28 13:01:33;;;;;;;10.00;3.95;;;;;;;50.54;19.14;98996.13;5587990;31;34007;-71
2023/08/28 13:04:38;;;;;;;11.68;4.28;;;;;;;49.01;18.78;98993.94;5587875;31;33971;-71
2023/08/28 13:07:41;;;;;;;16.05;4.35;;;;;;;49.45;19.10;98999.50;5587614;31;34093;-71
2023/08/28 13:10:44;;;;;;;10.95;4.12;;;;;;;48.34;19.73;98987.97;5587642;31;34013;-70
2023/08/28 13:13:47;;;;;;;20.48;4.30;;;;;;;49.09;19.53;98986.03;5586940;31;34861;-71
2023/08/28 13:16:50;;;;;;;12.23;4.10;;;;;;;50.02;18.94;98972.53;5587020;31;33814;-70
2023/08/28 13:19:53;;;;;;;8.57;4.05;;;;;;;49.98;18.81;98981.16;5589830;31;34789;-71
2023/08/28 13:22:56;;;;;;;14.70;4.30;;;;;;;48.62;20.03;98972.84;5589714;31;34550;-71
2023/08/28 13:25:59;;;;;;;10.68;3.90;;;;;;;46.88;21.14;98966.56;5590779;31;33777;-71
2023/08/28 13:29:02;;;;;;;13.73;4.05;;;;;;;48.42;19.64;98972.41;5590427;31;34459;-70
2023/08/28 13:32:05;;;;;;;14.02;3.87;;;;;;;48.86;18.15;98956.28;5589302;31;33884;-71
2023/08/28 13:35:08;;;;;;;13.52;4.20;;;;;;;48.79;17.64;98950.94;5590622;31;34656;-71
2023/08/28 13:38:11;;;;;;;11.57;3.92;;;;;;;48.19;17.79;98941.87;5589307;31;34584;-71
2023/08/28 13:41:14;;;;;;;13.75;4.10;;;;;;;47.83;18.53;98940.31;5589442;31;34109;-71
2023/08/28 13:44:17;;;;;;;14.60;3.87;;;;;;;47.19;19.63;98935.19;5590077;31;33916;-71
2023/08/28 13:47:19;;;;;;;11.48;3.92;;;;;;;47.45;19.71;98929.09;5589941;31;33786;-70
2023/08/28 13:50:23;;;;;;;23.87;4.97;;;;;;;47.60;18.96;98920.97;5589829;31;33846;-71
2023/08/28 13:53:25;;;;;;;9.38;3.62;;;;;;;48.99;18.77;98925.25;5589642;31;33838;-71
2023/08/28 13:56:29;;;;;;;11.20;4.00;;;;;;;48.27;18.56;98921.47;5589416;31;33884;-70
2023/08/28 13:59:31;;;;;;;23.95;4.53;;;;;;;48.81;18.13;98922.31;5589448;31;34014;-71
2023/08/28 14:02:34;;;;;;;17.12;4.25;;;;;;;50.52;17.26;98925.22;5589481;31;34035;-71
2023/08/28 14:05:37;;;;;;;21.85;4.72;;;;;;;50.88;16.06;98913.84;5589676;31;33803;-71
2023/08/28 14:08:40;;;;;;;18.70;4.25;;;;;;;48.11;17.72;98901.97;5589276;31;33865;-71
2023/08/28 14:11:43;;;;;;;19.75;4.40;;;;;;;47.80;18.48;98903.87;5589063;31;34194;-71
2023/08/28 14:14:48;;;;;;;16.37;4.00;;;;;;;44.22;21.69;98890.22;5589506;31;33952;-70
2023/08/28 14:17:51;;;;;;;15.80;4.32;;;;;;;42.01;23.21;98886.31;5588984;31;35533;-71